Time;durP1;ratioP1;P1;durP2;ratioP2;P2;SDS_P1;SDS_P2;PMS_P1;PMS_P2;Temp;Humidity;BMP_temperature;BMP_pressure;BME280_temperature;BME280_humidity;BME280_pressure;Samples;Min_cycle;Max_cycle;Signal;HPM_P1;HPM_P2
2021/04/01 00:00:17;;;;;;;45.50;25.33;;;17.00;99.90;;;;;;4989117;28;20487;-76
2021/04/01 00:02:47;;;;;;;45.10;26.80;;;17.00;99.90;;;;;;4987313;28;20433;-76
2021/04/01 00:05:14;;;;;;;46.73;26.90;;;16.90;99.90;;;;;;4981076;28;20468;-76
2021/04/01 00:07:39;;;;;;;45.00;30.07;;;16.90;99.90;;;;;;4989295;28;20443;-76
2021/04/01 00:10:13;;;;;;;48.47;25.63;;;16.90;99.90;;;;;;4985546;28;20455;-76
2021/04/01 00:12:39;;;;;;;43.03;27.13;;;16.90;99.90;;;;;;4985775;28;20194;-76
2021/04/01 00:15:07;;;;;;;44.43;28.40;;;17.00;99.90;;;;;;4986425;28;20448;-76
2021/04/01 00:17:33;;;;;;;44.80;27.33;;;16.90;99.90;;;;;;4978112;28;20217;-76
2021/04/01 00:19:58;;;;;;;44.97;28.57;;;16.90;99.90;;;;;;4980628;28;20514;-76
2021/04/01 00:22:24;;;;;;;47.87;27.33;;;16.90;99.90;;;;;;4987096;28;20443;-76
2021/04/01 00:24:49;;;;;;;50.37;27.80;;;16.90;99.90;;;;;;4975299;28;20209;-76
2021/04/01 00:27:15;;;;;;;47.70;26.93;;;16.90;99.90;;;;;;4988943;28;20187;-76
2021/04/01 00:29:40;;;;;;;50.83;28.83;;;16.90;99.90;;;;;;4982732;28;20284;-76
2021/04/01 00:32:06;;;;;;;48.33;27.00;;;16.80;99.90;;;;;;4988000;28;20204;-76
2021/04/01 00:34:32;;;;;;;42.30;27.03;;;16.90;99.90;;;;;;4980316;28;20172;-77
2021/04/01 00:36:57;;;;;;;45.17;28.30;;;16.80;99.90;;;;;;4986740;28;20991;-76
2021/04/01 00:39:23;;;;;;;49.23;28.47;;;16.80;99.90;;;;;;4983425;28;20220;-76
2021/04/01 00:41:48;;;;;;;43.93;28.47;;;16.80;99.90;;;;;;4979687;28;20173;-76
2021/04/01 00:44:16;;;;;;;46.20;28.50;;;16.70;99.90;;;;;;5011344;28;20196;-76
2021/04/01 00:46:47;;;;;;;48.63;27.97;;;16.70;99.90;;;;;;4975263;28;20178;-76
2021/04/01 00:49:13;;;;;;;41.50;28.53;;;16.60;99.90;;;;;;4975088;28;20848;-76
2021/04/01 00:51:38;;;;;;;53.40;29.90;;;16.60;99.90;;;;;;4977913;28;20470;-76
2021/04/01 00:54:04;;;;;;;50.93;28.63;;;16.60;99.90;;;;;;4983121;28;20205;-76
2021/04/01 00:56:30;;;;;;;42.00;27.10;;;16.50;99.90;;;;;;4993345;28;20203;-76
2021/04/01 00:58:55;;;;;;;36.07;23.43;;;16.30;99.90;;;;;;4984065;28;20706;-76
2021/04/01 01:01:37;;;;;;;37.70;25.03;;;16.20;99.90;;;;;;5016143;28;20815;-76
2021/04/01 01:04:03;;;;;;;32.73;22.27;;;16.20;99.90;;;;;;4992863;28;20248;-76
2021/04/01 01:06:29;;;;;;;38.43;26.00;;;16.20;99.90;;;;;;5025697;28;20427;-75
2021/04/01 01:08:54;;;;;;;42.83;25.40;;;16.10;99.90;;;;;;5013417;28;20837;-76
2021/04/01 01:11:20;;;;;;;41.90;24.70;;;16.10;99.90;;;;;;4993474;28;20428;-76
2021/04/01 01:13:46;;;;;;;42.10;24.50;;;16.00;99.90;;;;;;4990448;28;20219;-76
2021/04/01 01:16:12;;;;;;;36.47;23.13;;;16.00;99.90;;;;;;4973132;28;20477;-76
2021/04/01 01:18:38;;;;;;;42.73;25.93;;;16.00;99.90;;;;;;4973291;28;20188;-76
2021/04/01 01:21:04;;;;;;;31.40;23.10;;;15.90;99.90;;;;;;4984868;28;20543;-76
2021/04/01 01:23:30;;;;;;;31.70;22.87;;;15.80;99.90;;;;;;4991595;28;20452;-76
2021/04/01 01:25:57;;;;;;;32.10;21.23;;;15.70;99.90;;;;;;4993861;28;20173;-76
2021/04/01 01:28:23;;;;;;;29.20;21.20;;;15.40;99.90;;;;;;4988671;28;20921;-76
2021/04/01 01:30:50;;;;;;;35.93;23.27;;;15.40;99.90;;;;;;4973420;28;20456;-76
2021/04/01 01:33:19;;;;;;;39.13;22.83;;;15.40;99.90;;;;;;4974697;28;20313;-76
2021/04/01 01:35:47;;;;;;;39.43;22.87;;;15.40;99.90;;;;;;4975550;28;20429;-76
2021/04/01 01:38:12;;;;;;;39.80;23.00;;;15.40;99.90;;;;;;5023837;28;20448;-76
2021/04/01 01:40:38;;;;;;;45.70;27.00;;;15.40;99.90;;;;;;4992460;28;20460;-76
2021/04/01 01:43:06;;;;;;;46.50;31.03;;;15.40;99.90;;;;;;4991308;28;20432;-76
2021/04/01 01:45:33;;;;;;;63.87;36.77;;;15.40;99.90;;;;;;4980941;28;20453;-76
2021/04/01 01:47:59;;;;;;;52.30;30.93;;;15.40;99.90;;;;;;4974040;28;21253;-76
2021/04/01 01:50:27;;;;;;;40.37;27.00;;;15.40;99.90;;;;;;4988683;28;20536;-76
2021/04/01 01:52:53;;;;;;;43.13;25.60;;;15.40;99.90;;;;;;4983789;28;20870;-76
2021/04/01 01:55:19;;;;;;;40.50;26.30;;;15.40;99.90;;;;;;4987426;28;20433;-76
2021/04/01 01:57:45;;;;;;;40.57;25.43;;;15.30;99.90;;;;;;4974696;28;20232;-76
2021/04/01 02:00:20;;;;;;;45.10;26.70;;;15.20;99.90;;;;;;4977032;28;20811;-76
2021/04/01 02:03:04;;;;;;;48.90;32.03;;;15.20;99.90;;;;;;4993975;28;20296;-76
2021/04/01 02:05:30;;;;;;;48.83;29.20;;;15.10;99.90;;;;;;4977686;28;20433;-76
2021/04/01 02:07:58;;;;;;;39.30;26.27;;;15.10;99.90;;;;;;4978351;28;20425;-76
2021/04/01 02:10:30;;;;;;;39.43;25.33;;;15.00;99.90;;;;;;4984872;28;20454;-76
2021/04/01 02:12:57;;;;;;;43.60;25.40;;;15.00;99.90;;;;;;4988099;28;20520;-76
2021/04/01 02:15:25;;;;;;;42.03;26.70;;;14.90;99.90;;;;;;4978339;28;20459;-76
2021/04/01 02:17:51;;;;;;;38.60;25.73;;;14.90;99.90;;;;;;4977253;28;20499;-76
2021/04/01 02:20:17;;;;;;;41.60;27.60;;;14.80;99.90;;;;;;4982906;28;20522;-76
2021/04/01 02:22:42;;;;;;;46.13;27.77;;;14.90;99.90;;;;;;4984291;28;20216;-76
2021/04/01 02:25:09;;;;;;;47.77;26.50;;;14.80;99.90;;;;;;4992581;28;20459;-76
2021/04/01 02:27:35;;;;;;;41.27;26.23;;;14.70;99.90;;;;;;4987411;28;20169;-76
2021/04/01 02:30:03;;;;;;;44.43;27.50;;;14.70;99.90;;;;;;4976413;28;20480;-76
2021/04/01 02:32:28;;;;;;;42.13;28.80;;;14.70;99.90;;;;;;4989002;28;20424;-76
2021/04/01 02:34:54;;;;;;;42.17;26.20;;;14.60;99.90;;;;;;4987258;28;20436;-76
2021/04/01 02:37:19;;;;;;;38.00;25.73;;;14.60;99.90;;;;;;5020442;28;20189;-76
2021/04/01 02:39:45;;;;;;;38.03;25.10;;;14.60;99.90;;;;;;4976709;28;20251;-76
2021/04/01 02:42:11;;;;;;;40.23;24.73;;;14.60;99.90;;;;;;4973814;28;20301;-76
2021/04/01 02:44:37;;;;;;;39.07;24.27;;;14.60;99.90;;;;;;4985842;28;20262;-76
2021/04/01 02:47:04;;;;;;;41.93;26.37;;;14.60;99.90;;;;;;4972895;28;20794;-76
2021/04/01 02:49:30;;;;;;;45.53;26.37;;;14.50;99.90;;;;;;4979489;28;20455;-76
2021/04/01 02:51:55;;;;;;;40.43;24.97;;;14.50;99.90;;;;;;4991765;28;20455;-76
2021/04/01 02:54:21;;;;;;;40.30;26.80;;;14.50;99.90;;;;;;4981367;28;20181;-76
2021/04/01 02:56:47;;;;;;;36.03;23.83;;;14.40;99.90;;;;;;4986175;28;20558;-76
2021/04/01 02:59:12;;;;;;;42.90;24.37;;;14.30;99.90;;;;;;4990898;28;20247;-76
2021/04/01 03:01:38;;;;;;;36.07;23.70;;;14.20;99.90;;;;;;4983813;28;20838;-76
2021/04/01 03:04:07;;;;;;;38.70;23.50;;;14.20;99.90;;;;;;4972511;28;20202;-76
2021/04/01 03:06:33;;;;;;;39.87;23.33;;;14.10;99.90;;;;;;4973044;28;20177;-76
2021/04/01 03:08:58;;;;;;;36.97;22.90;;;14.10;99.90;;;;;;4953862;28;20433;-76
2021/04/01 03:11:24;;;;;;;32.70;22.70;;;14.00;99.90;;;;;;4971235;28;20421;-76
2021/04/01 03:13:50;;;;;;;44.80;25.00;;;13.90;99.90;;;;;;4984739;28;20281;-76
2021/04/01 03:16:15;;;;;;;44.37;25.57;;;13.90;99.90;;;;;;4978925;28;20189;-76
2021/04/01 03:18:41;;;;;;;41.80;22.77;;;13.80;99.90;;;;;;4979164;28;20196;-76
2021/04/01 03:21:06;;;;;;;37.00;21.47;;;13.80;99.90;;;;;;4986301;28;20181;-76
2021/04/01 03:23:32;;;;;;;40.93;23.67;;;13.70;99.90;;;;;;4986383;28;20574;-76
2021/04/01 03:25:58;;;;;;;39.73;23.80;;;13.60;99.90;;;;;;4979980;28;20269;-76
2021/04/01 03:28:24;;;;;;;38.93;21.73;;;13.50;99.90;;;;;;4976113;28;20200;-76
2021/04/01 03:30:57;;;;;;;47.47;24.67;;;13.50;99.90;;;;;;4988066;28;20451;-76
2021/04/01 03:33:29;;;;;;;34.73;22.43;;;13.30;99.90;;;;;;4983390;28;20491;-76
2021/04/01 03:36:03;;;;;;;45.57;22.27;;;13.30;99.90;;;;;;4979359;28;20435;-76
2021/04/01 03:38:28;;;;;;;35.33;24.00;;;13.30;99.90;;;;;;4972897;28;20436;-76
2021/04/01 03:40:55;;;;;;;39.03;24.10;;;13.30;99.90;;;;;;4982863;28;20470;-76
2021/04/01 03:43:22;;;;;;;39.33;23.17;;;13.30;99.90;;;;;;4972702;28;20207;-76
2021/04/01 03:45:48;;;;;;;41.43;22.80;;;13.40;99.90;;;;;;4971933;28;20447;-76
2021/04/01 03:48:13;;;;;;;37.80;24.20;;;13.40;99.90;;;;;;4975006;28;20982;-76
2021/04/01 03:50:39;;;;;;;34.97;22.60;;;13.40;99.90;;;;;;4982213;28;20563;-76
2021/04/01 03:53:05;;;;;;;37.00;24.47;;;13.50;99.90;;;;;;4987238;28;20186;-76
2021/04/01 04:00:36;;;;;;;39.90;25.37;;;13.50;99.90;;;;;;4992332;28;20460;-75
2021/04/01 04:05:39;;;;;;;35.07;23.23;;;13.50;99.90;;;;;;4985424;28;20448;-75
2021/04/01 04:08:36;;;;;;;38.27;24.87;;;13.50;99.90;;;;;;4986306;28;20483;-76
2021/04/01 04:13:44;;;;;;;35.27;25.03;;;13.50;99.90;;;;;;4975646;28;20445;-76
2021/04/01 04:16:10;;;;;;;43.87;23.83;;;13.50;99.90;;;;;;4964604;28;20431;-76
2021/04/01 04:18:35;;;;;;;43.47;24.00;;;13.50;99.90;;;;;;4986686;28;20886;-76
2021/04/01 04:21:06;;;;;;;39.60;24.27;;;13.50;99.90;;;;;;4992622;28;20254;-76
2021/04/01 04:23:32;;;;;;;43.23;25.90;;;13.50;99.90;;;;;;5023866;28;20429;-76
2021/04/01 04:25:58;;;;;;;36.37;23.87;;;13.50;99.90;;;;;;4985600;28;20459;-75
2021/04/01 04:30:49;;;;;;;36.40;23.70;;;13.40;99.90;;;;;;4981563;28;20452;-76
2021/04/01 04:33:15;;;;;;;37.60;24.00;;;13.40;99.90;;;;;;4980220;28;20169;-76
2021/04/01 04:35:41;;;;;;;42.30;23.57;;;13.40;99.90;;;;;;4983495;28;20191;-74
2021/04/01 04:38:06;;;;;;;38.53;24.90;;;13.30;99.90;;;;;;5014346;28;20173;-76
2021/04/01 04:40:32;;;;;;;35.17;24.20;;;13.30;99.90;;;;;;4980895;28;20221;-76
2021/04/01 04:42:58;;;;;;;44.13;25.70;;;13.30;99.90;;;;;;4981354;28;20181;-76
2021/04/01 04:45:23;;;;;;;37.07;23.50;;;13.20;99.90;;;;;;4988474;28;20200;-75
2021/04/01 04:47:49;;;;;;;39.17;24.70;;;13.20;99.90;;;;;;4999714;28;20574;-76
2021/04/01 04:50:15;;;;;;;33.53;23.33;;;13.20;99.90;;;;;;4983252;28;20193;-76
2021/04/01 04:52:41;;;;;;;40.03;26.17;;;13.20;99.90;;;;;;5015982;28;20192;-76
2021/04/01 04:55:08;;;;;;;39.60;24.50;;;13.30;99.90;;;;;;5014687;28;20260;-76
2021/04/01 05:05:31;;;;;;;37.00;25.47;;;13.40;99.90;;;;;;4983677;28;20781;-76
2021/04/01 05:07:58;;;;;;;40.07;26.50;;;13.50;99.90;;;;;;4982723;28;20488;-76
2021/04/01 05:10:26;;;;;;;43.30;27.20;;;13.40;99.90;;;;;;4971553;28;20429;-75
2021/04/01 05:13:13;;;;;;;40.97;25.87;;;13.50;99.90;;;;;;4980376;28;20184;-76
2021/04/01 05:15:41;;;;;;;41.17;26.70;;;13.50;99.90;;;;;;4978646;28;20851;-76
2021/04/01 05:18:17;;;;;;;43.83;24.70;;;13.50;99.90;;;;;;4976943;28;20413;-75
2021/04/01 05:20:47;;;;;;;44.23;25.90;;;13.50;99.90;;;;;;4979035;28;20463;-76
2021/04/01 05:23:32;;;;;;;45.63;29.10;;;13.40;99.90;;;;;;4979265;28;20420;-76
2021/04/01 05:28:55;;;;;;;47.50;29.20;;;13.40;99.90;;;;;;4981235;28;20427;-75
2021/04/01 05:31:23;;;;;;;42.93;26.20;;;13.40;99.90;;;;;;4979126;28;20428;-75
2021/04/01 05:33:57;;;;;;;56.40;29.30;;;13.40;99.90;;;;;;4981403;28;20436;-76
2021/04/01 05:36:29;;;;;;;44.47;27.60;;;13.30;99.90;;;;;;4995631;28;20417;-74
2021/04/01 05:39:00;;;;;;;47.27;30.80;;;13.30;99.90;;;;;;4980999;28;20471;-76
2021/04/01 05:41:28;;;;;;;44.33;27.40;;;13.40;99.90;;;;;;4979160;28;20515;-76
2021/04/01 05:44:32;;;;;;;44.03;27.80;;;13.40;99.90;;;;;;5011178;28;20479;-76
2021/04/01 05:47:07;;;;;;;47.37;29.50;;;13.40;99.90;;;;;;4979390;28;20429;-75
2021/04/01 06:03:51;;;;;;;50.90;29.93;;;13.60;99.90;;;;;;4972933;28;20475;-75
2021/04/01 06:06:26;;;;;;;38.67;28.10;;;13.70;99.90;;;;;;4973602;28;20443;-75
2021/04/01 06:08:52;;;;;;;54.33;29.90;;;13.70;99.90;;;;;;4978288;28;20472;-75
2021/04/01 06:11:21;;;;;;;52.40;31.27;;;13.80;99.90;;;;;;4992863;28;20439;-75
2021/04/01 06:14:08;;;;;;;51.47;28.40;;;14.00;99.90;;;;;;4998711;28;20439;-75
2021/04/01 06:16:39;;;;;;;52.70;29.47;;;14.00;99.90;;;;;;5016387;28;20973;-75
2021/04/01 06:19:07;;;;;;;54.73;29.27;;;14.00;99.90;;;;;;4991997;28;20913;-75
2021/04/01 06:21:43;;;;;;;50.17;28.83;;;14.10;99.90;;;;;;4985441;28;20490;-75
2021/04/01 06:24:23;;;;;;;40.93;27.67;;;14.10;99.90;;;;;;4984283;28;20463;-75
2021/04/01 06:29:33;;;;;;;46.70;31.00;;;14.30;99.90;;;;;;4992657;28;20527;-75
2021/04/01 06:32:02;;;;;;;47.90;27.50;;;14.50;99.90;;;;;;4987309;28;20793;-75
2021/04/01 06:34:43;;;;;;;47.27;29.33;;;14.80;99.90;;;;;;4976262;28;20514;-75
2021/04/01 06:40:05;;;;;;;39.50;26.73;;;15.70;99.90;;;;;;4983967;28;20456;-76
2021/04/01 06:42:51;;;;;;;52.00;27.93;;;16.10;99.90;;;;;;4976882;28;20424;-75
2021/04/01 06:45:21;;;;;;;36.30;24.83;;;16.30;99.90;;;;;;4991632;28;20463;-75
2021/04/01 06:47:50;;;;;;;43.53;26.17;;;16.70;99.90;;;;;;4993028;28;20863;-75
2021/04/01 06:50:23;;;;;;;41.63;25.30;;;17.20;99.90;;;;;;4989291;28;20448;-75
2021/04/01 06:52:59;;;;;;;46.83;27.90;;;17.70;99.90;;;;;;4983619;28;20429;-75
2021/04/01 06:55:32;;;;;;;39.70;25.80;;;18.20;99.90;;;;;;4984644;28;20432;-75
2021/04/01 07:01:01;;;;;;;45.57;26.67;;;19.10;99.90;;;;;;4998837;28;20834;-75
2021/04/01 07:03:40;;;;;;;42.07;27.07;;;19.60;99.90;;;;;;4995323;28;20475;-75
2021/04/01 07:06:18;;;;;;;34.83;25.13;;;20.10;99.90;;;;;;4975489;28;20536;-75
2021/04/01 07:08:51;;;;;;;39.40;25.13;;;20.70;99.90;;;;;;4974354;28;20433;-75
2021/04/01 07:11:37;;;;;;;43.87;29.10;;;21.20;99.90;;;;;;4994080;28;20432;-76
2021/04/01 07:14:08;;;;;;;46.80;26.77;;;21.60;99.90;;;;;;4987379;28;21003;-75
2021/04/01 07:46:50;;;;;;;42.03;31.13;;;25.90;96.60;;;;;;4994069;28;20510;-76
2021/04/01 07:49:21;;;;;;;42.00;30.87;;;26.30;91.60;;;;;;4994239;28;20488;-75
2021/04/01 07:52:01;;;;;;;44.00;29.60;;;26.40;89.00;;;;;;4988968;28;20432;-75
2021/04/01 07:54:41;;;;;;;43.80;33.00;;;26.50;85.20;;;;;;4977827;28;20444;-77
2021/04/01 07:57:26;;;;;;;46.33;33.23;;;26.50;84.80;;;;;;4985749;28;20451;-76
2021/04/01 08:04:48;;;;;;;45.27;33.23;;;26.70;84.30;;;;;;4990112;28;20455;-75
2021/04/01 08:07:15;;;;;;;61.70;35.20;;;26.80;85.50;;;;;;4987851;28;20209;-75
2021/04/01 08:09:45;;;;;;;80.97;35.70;;;26.80;82.40;;;;;;4989216;28;20482;-76
2021/04/01 08:12:28;;;;;;;53.80;34.43;;;26.80;83.90;;;;;;4982131;28;20930;-76
2021/04/01 08:15:01;;;;;;;57.47;37.90;;;27.30;79.10;;;;;;4979792;28;20957;-75
2021/04/01 08:17:34;;;;;;;51.50;38.03;;;27.00;74.70;;;;;;4979141;28;20491;-75
2021/04/01 08:20:01;;;;;;;55.93;35.83;;;27.00;72.60;;;;;;4971967;28;20453;-75
2021/04/01 08:22:29;;;;;;;47.67;36.90;;;27.40;72.60;;;;;;4972692;28;20436;-76
2021/04/01 08:25:00;;;;;;;57.20;39.03;;;27.70;70.50;;;;;;4972647;28;20463;-76
2021/04/01 08:28:16;;;;;;;63.70;39.77;;;28.20;69.90;;;;;;5004162;28;20779;-76
2021/04/01 08:31:10;;;;;;;50.93;38.20;;;28.40;67.80;;;;;;4971084;28;20447;-76
2021/04/01 08:33:53;;;;;;;53.60;38.60;;;28.70;67.30;;;;;;4976122;28;20440;-76
2021/04/01 08:36:24;;;;;;;55.40;37.00;;;29.00;65.60;;;;;;4976118;28;20417;-76
2021/04/01 08:38:50;;;;;;;51.40;38.70;;;28.60;64.80;;;;;;4977074;28;20468;-76
2021/04/01 08:41:35;;;;;;;58.77;41.67;;;28.90;64.90;;;;;;4991371;28;20448;-76
2021/04/01 08:44:09;;;;;;;58.80;41.73;;;28.90;62.10;;;;;;4990286;28;21001;-75
2021/04/01 08:47:09;;;;;;;47.03;36.97;;;28.90;61.70;;;;;;4976688;28;20420;-76
2021/04/01 08:49:48;;;;;;;54.13;40.00;;;29.30;62.00;;;;;;4976999;28;20483;-76
2021/04/01 08:52:51;;;;;;;54.83;39.40;;;29.80;60.70;;;;;;4977566;28;20555;-76
2021/04/01 08:55:19;;;;;;;57.63;39.73;;;30.10;59.80;;;;;;4975509;28;20419;-76
2021/04/01 08:58:03;;;;;;;59.53;39.60;;;30.30;58.10;;;;;;4974153;28;20452;-76
2021/04/01 09:00:32;;;;;;;55.20;39.50;;;30.30;57.40;;;;;;4975262;28;20436;-75
2021/04/01 09:02:59;;;;;;;52.17;39.00;;;30.40;57.70;;;;;;4975493;28;20402;-76
2021/04/01 09:05:25;;;;;;;49.60;38.80;;;30.50;56.80;;;;;;4975043;28;20452;-75
2021/04/01 09:07:56;;;;;;;55.57;37.97;;;30.70;55.50;;;;;;4975471;28;20405;-76
2021/04/01 09:10:24;;;;;;;45.87;35.90;;;30.80;55.90;;;;;;4974846;28;20421;-76
2021/04/01 09:12:56;;;;;;;51.80;36.13;;;30.90;53.20;;;;;;4974955;28;20421;-76
2021/04/01 09:15:26;;;;;;;48.87;36.93;;;31.10;52.20;;;;;;4975250;28;20408;-76
2021/04/01 09:17:52;;;;;;;54.60;36.07;;;31.00;52.20;;;;;;4974943;28;20451;-76
2021/04/01 09:20:23;;;;;;;49.87;38.30;;;30.90;52.80;;;;;;4974654;28;20449;-75
2021/04/01 09:22:49;;;;;;;52.40;38.23;;;31.00;52.50;;;;;;4975477;28;20478;-76
2021/04/01 09:25:18;;;;;;;52.60;36.73;;;31.00;52.70;;;;;;4990653;28;20467;-76
2021/04/01 09:28:00;;;;;;;51.50;35.73;;;31.10;52.70;;;;;;4974736;28;20440;-76
2021/04/01 09:30:26;;;;;;;44.63;35.80;;;31.00;51.70;;;;;;4960040;28;20814;-76
2021/04/01 09:32:56;;;;;;;50.67;37.03;;;31.40;52.20;;;;;;4975103;28;20413;-75
2021/04/01 09:35:23;;;;;;;49.10;34.90;;;31.60;52.00;;;;;;4975010;28;20174;-76
2021/04/01 09:38:02;;;;;;;47.37;35.60;;;31.70;51.60;;;;;;4974245;28;20771;-76
2021/04/01 09:40:31;;;;;;;46.23;33.07;;;31.70;52.60;;;;;;5005980;28;20558;-76
2021/04/01 09:43:12;;;;;;;49.63;34.80;;;31.80;51.10;;;;;;4974702;28;20738;-76
2021/04/01 09:45:38;;;;;;;49.33;34.13;;;32.00;50.30;;;;;;4972819;28;20445;-76
2021/04/01 09:48:04;;;;;;;48.30;32.20;;;31.90;49.50;;;;;;4974744;28;20402;-76
2021/04/01 09:50:36;;;;;;;47.50;34.90;;;31.60;49.60;;;;;;4989274;28;20507;-76
2021/04/01 09:53:12;;;;;;;48.50;35.40;;;31.50;50.10;;;;;;4972563;28;20427;-76
2021/04/01 09:55:40;;;;;;;43.70;33.80;;;31.70;49.00;;;;;;4974257;28;20472;-76
2021/04/01 09:58:32;;;;;;;48.20;33.30;;;31.80;50.00;;;;;;4973008;28;20461;-76
2021/04/01 10:03:56;;;;;;;54.43;32.80;;;31.60;49.60;;;;;;4974385;28;20439;-76
2021/04/01 10:06:32;;;;;;;45.43;34.53;;;31.70;50.20;;;;;;4989403;28;20586;-76
2021/04/01 10:09:26;;;;;;;57.60;35.00;;;31.60;49.70;;;;;;4974259;28;20405;-76
2021/04/01 10:12:07;;;;;;;49.20;35.80;;;31.00;51.30;;;;;;4974349;28;20397;-76
2021/04/01 10:14:53;;;;;;;50.57;35.83;;;31.10;50.10;;;;;;4972733;28;20425;-76
2021/04/01 10:17:21;;;;;;;51.60;36.70;;;31.40;51.40;;;;;;4972945;28;20827;-76
2021/04/01 10:19:49;;;;;;;51.37;33.23;;;31.40;48.70;;;;;;4972413;28;20528;-76
2021/04/01 10:22:36;;;;;;;45.50;32.90;;;31.50;49.60;;;;;;4974057;28;20488;-76
2021/04/01 10:28:22;;;;;;;48.43;34.50;;;31.10;49.20;;;;;;4970060;28;20748;-76
2021/04/01 10:30:34;;;;;;;50.53;34.53;;;31.40;49.70;;;;;;4973146;28;20460;-76
2021/04/01 10:33:05;;;;;;;46.17;33.30;;;31.90;49.10;;;;;;4973542;28;20416;-76
2021/04/01 10:35:36;;;;;;;45.50;31.10;;;31.60;48.50;;;;;;4988521;28;20482;-76
2021/04/01 10:38:04;;;;;;;44.20;31.30;;;31.90;49.20;;;;;;4973859;28;20401;-76
2021/04/01 10:40:32;;;;;;;43.77;30.63;;;31.70;48.20;;;;;;4973504;28;20424;-76
2021/04/01 10:43:09;;;;;;;40.70;28.00;;;32.30;49.30;;;;;;4972642;28;20433;-76
2021/04/01 10:45:43;;;;;;;40.27;25.97;;;32.30;48.00;;;;;;4967471;28;20452;-76
2021/04/01 10:48:27;;;;;;;42.37;27.17;;;31.70;47.80;;;;;;4973177;28;20429;-76
2021/04/01 10:50:56;;;;;;;37.90;26.37;;;31.90;49.10;;;;;;4972944;28;20851;-76
2021/04/01 10:53:26;;;;;;;37.70;22.60;;;31.60;48.70;;;;;;4973575;28;20401;-76
2021/04/01 10:56:00;;;;;;;39.87;24.43;;;32.00;48.50;;;;;;4972832;28;20421;-76
2021/04/01 10:58:25;;;;;;;40.27;24.27;;;32.10;49.40;;;;;;4972985;28;20420;-76
2021/04/01 11:01:02;;;;;;;36.30;22.90;;;31.90;47.80;;;;;;4973306;28;20792;-77
2021/04/01 11:03:39;;;;;;;37.13;23.07;;;32.00;48.70;;;;;;4971682;28;20177;-76
2021/04/01 11:06:06;;;;;;;42.80;24.43;;;31.70;49.20;;;;;;4973394;28;20408;-76
2021/04/01 11:08:43;;;;;;;44.90;24.50;;;31.90;49.30;;;;;;4970439;28;20449;-76
2021/04/01 11:11:09;;;;;;;36.10;24.90;;;31.90;49.50;;;;;;4972863;28;20466;-76
2021/04/01 11:13:40;;;;;;;48.23;25.27;;;31.70;48.50;;;;;;4972713;28;20914;-76
2021/04/01 11:16:11;;;;;;;39.63;23.93;;;31.90;49.90;;;;;;4973220;28;20420;-76
2021/04/01 11:18:42;;;;;;;34.50;25.63;;;31.80;49.70;;;;;;4973141;28;20508;-76
2021/04/01 11:21:11;;;;;;;36.47;22.80;;;31.90;49.20;;;;;;4973022;28;20400;-76
2021/04/01 11:23:36;;;;;;;44.87;26.00;;;31.70;48.80;;;;;;4972745;28;20547;-77
2021/04/01 11:26:04;;;;;;;42.67;24.60;;;31.40;49.30;;;;;;4973455;28;20456;-76
2021/04/01 11:28:44;;;;;;;41.30;24.47;;;31.80;49.40;;;;;;4973172;28;20183;-76
2021/04/01 11:31:23;;;;;;;45.13;26.00;;;31.80;48.60;;;;;;4972494;28;20420;-77
2021/04/01 11:33:54;;;;;;;39.27;25.60;;;31.60;49.00;;;;;;4972607;28;20436;-77
2021/04/01 11:36:21;;;;;;;41.10;24.90;;;31.20;49.90;;;;;;4973019;28;20464;-77
2021/04/01 11:38:50;;;;;;;42.43;25.23;;;31.10;50.80;;;;;;4972900;28;20413;-77
2021/04/01 11:41:18;;;;;;;43.20;24.93;;;31.10;50.40;;;;;;4972939;28;20590;-76
2021/04/01 11:43:49;;;;;;;39.70;25.90;;;31.00;50.30;;;;;;4972785;28;20793;-77
2021/04/01 11:46:23;;;;;;;44.90;26.53;;;31.00;51.00;;;;;;4972677;28;20417;-76
2021/04/01 11:48:50;;;;;;;44.60;27.57;;;31.10;51.70;;;;;;4971754;28;20957;-77
2021/04/01 11:51:18;;;;;;;39.77;26.37;;;31.20;50.10;;;;;;4972012;28;20412;-77
2021/04/01 11:53:45;;;;;;;41.53;25.30;;;31.10;50.20;;;;;;4972230;28;20484;-76
2021/04/01 11:56:11;;;;;;;46.60;26.30;;;31.10;51.10;;;;;;4972317;28;20838;-77
2021/04/01 11:58:36;;;;;;;37.97;24.00;;;30.80;50.90;;;;;;4972849;28;20421;-77
2021/04/01 12:01:10;;;;;;;40.67;23.53;;;30.60;50.10;;;;;;4971989;28;20197;-76
2021/04/01 12:04:00;;;;;;;35.70;23.70;;;30.60;49.70;;;;;;4973301;28;20432;-77
2021/04/01 12:06:26;;;;;;;38.50;24.83;;;30.50;50.80;;;;;;4988730;28;20423;-77
2021/04/01 12:08:53;;;;;;;43.73;28.27;;;30.10;51.00;;;;;;4984447;28;20409;-77
2021/04/01 12:11:18;;;;;;;43.90;27.57;;;30.20;50.80;;;;;;4975386;28;20456;-77
2021/04/01 12:13:44;;;;;;;40.97;26.80;;;30.00;51.90;;;;;;4976388;28;20914;-77
2021/04/01 12:16:23;;;;;;;37.53;26.93;;;29.80;51.80;;;;;;4975515;28;20185;-77
2021/04/01 12:18:50;;;;;;;42.43;26.63;;;30.00;52.10;;;;;;4977577;28;20479;-76
2021/04/01 12:21:16;;;;;;;38.80;25.30;;;30.10;51.60;;;;;;4974932;28;20425;-76
2021/04/01 12:23:45;;;;;;;37.43;24.23;;;30.40;50.00;;;;;;4974556;28;20468;-76
2021/04/01 12:26:11;;;;;;;42.20;26.77;;;30.20;50.30;;;;;;4975400;28;20910;-76
2021/04/01 12:28:37;;;;;;;33.20;23.43;;;29.80;50.70;;;;;;4975928;28;20428;-76
2021/04/01 12:31:03;;;;;;;42.83;23.83;;;29.70;49.60;;;;;;4975265;28;20526;-76
2021/04/01 12:33:29;;;;;;;41.13;27.43;;;29.80;50.00;;;;;;4975254;28;20670;-76
2021/04/01 12:35:59;;;;;;;50.37;30.03;;;29.70;50.40;;;;;;4975699;28;20413;-77
2021/04/01 12:38:28;;;;;;;45.43;30.50;;;29.80;51.20;;;;;;4975537;28;20415;-77
2021/04/01 12:40:55;;;;;;;45.80;30.53;;;29.50;50.90;;;;;;4974310;28;20436;-76
2021/04/01 12:43:27;;;;;;;50.37;31.90;;;29.70;51.20;;;;;;4975665;28;20417;-76
2021/04/01 12:45:54;;;;;;;48.10;31.60;;;29.80;50.70;;;;;;4975378;28;20898;-76
2021/04/01 12:48:20;;;;;;;48.13;33.10;;;29.80;51.20;;;;;;4972368;28;20425;-76
2021/04/01 12:50:48;;;;;;;53.93;35.17;;;29.70;50.70;;;;;;4975447;28;20445;-76
2021/04/01 12:53:20;;;;;;;50.70;31.90;;;29.40;51.20;;;;;;4975235;28;20441;-77
2021/04/01 12:58:22;;;;;;;52.23;31.90;;;29.00;49.90;;;;;;4975448;28;20421;-76
2021/04/01 13:00:53;;;;;;;48.00;34.57;;;28.80;51.40;;;;;;4974630;28;20451;-76
2021/04/01 13:03:18;;;;;;;46.93;31.90;;;28.80;51.40;;;;;;4975636;28;20507;-76
2021/04/01 13:05:52;;;;;;;58.40;37.20;;;28.70;52.00;;;;;;4975275;28;20859;-76
2021/04/01 13:10:43;;;;;;;54.23;34.60;;;28.70;53.20;;;;;;4974764;28;20444;-77
2021/04/01 13:13:10;;;;;;;65.83;38.30;;;28.60;52.70;;;;;;4994666;28;20173;-77
2021/04/01 13:15:38;;;;;;;58.43;36.13;;;28.80;52.00;;;;;;4994814;28;20409;-77
2021/04/01 13:18:04;;;;;;;73.27;36.90;;;28.50;52.00;;;;;;4976826;28;20437;-76
2021/04/01 13:20:30;;;;;;;57.63;35.07;;;28.20;52.30;;;;;;4973778;28;20425;-77
2021/04/01 13:25:22;;;;;;;54.40;36.40;;;28.30;52.00;;;;;;4974946;28;20702;-76
2021/04/01 13:27:51;;;;;;;65.83;38.37;;;28.20;53.40;;;;;;4974847;28;20436;-76
2021/04/01 13:30:20;;;;;;;68.13;41.67;;;28.50;53.50;;;;;;4974307;28;20437;-76
2021/04/01 13:32:52;;;;;;;67.27;40.20;;;28.30;53.30;;;;;;4974706;28;20452;-77
2021/04/01 13:35:26;;;;;;;63.60;44.40;;;28.20;54.00;;;;;;4974658;28;20490;-76
2021/04/01 13:38:00;;;;;;;56.20;42.77;;;27.80;54.60;;;;;;4974590;28;20413;-76
2021/04/01 13:40:25;;;;;;;60.50;42.33;;;27.40;56.40;;;;;;4967248;28;20435;-76
2021/04/01 13:42:54;;;;;;;60.37;42.37;;;26.90;57.00;;;;;;4974302;28;20425;-76
2021/04/01 13:45:22;;;;;;;63.20;44.00;;;26.70;57.20;;;;;;4973445;28;20256;-76
2021/04/01 13:47:56;;;;;;;59.77;43.20;;;27.10;58.10;;;;;;4988092;28;20452;-76
2021/04/01 13:50:24;;;;;;;56.37;43.90;;;27.40;58.30;;;;;;4974079;28;20436;-76
2021/04/01 13:53:02;;;;;;;67.27;46.20;;;27.40;57.10;;;;;;4974538;28;20415;-76
2021/04/01 13:55:35;;;;;;;75.70;49.67;;;27.00;57.20;;;;;;4973348;28;20441;-76
2021/04/01 14:04:06;;;;;;;70.80;49.40;;;26.20;59.20;;;;;;4974553;28;20496;-76
2021/04/01 14:11:39;;;;;;;76.73;51.67;;;25.60;60.20;;;;;;4973617;28;20431;-76
2021/04/01 14:14:06;;;;;;;77.77;52.10;;;25.70;59.30;;;;;;4973776;28;20425;-76
2021/04/01 14:16:33;;;;;;;71.53;49.60;;;25.70;59.30;;;;;;4973864;28;20417;-76
2021/04/01 14:19:00;;;;;;;80.30;49.17;;;25.80;59.20;;;;;;4974047;28;20408;-76
2021/04/01 14:21:26;;;;;;;77.80;53.40;;;25.70;60.10;;;;;;4973745;28;20428;-76
2021/04/01 14:23:52;;;;;;;72.63;51.67;;;25.70;60.70;;;;;;4974010;28;20453;-76
2021/04/01 14:26:43;;;;;;;68.33;45.83;;;25.60;61.10;;;;;;5005025;28;20213;-76
2021/04/01 14:29:09;;;;;;;66.37;42.20;;;25.30;60.70;;;;;;4973917;28;20433;-76